Terminal Aerodrome Forecast
Issued by NWS

Home | Current Version | Previous Version | Text Only | Print | Product List | Glossary On
Versions: 1 2 3 4 5 6 7 8 9 10 11 12 13 14 15 16 17 18 19
000
FTUS44 KEPZ 300219 AAB
TAFDMN
TAF AMD
KDMN 300219Z 3002/3024 14010KT P6SM -TSRA SCT060CB BKN120 BKN200
      TEMPO 3002/3004 VRB20G35KT 1SM TSRA BKN040CB OVC100
     FM300400 VRB06KT P6SM VCTS SCT050CB BKN100 OVC200
     FM300900 15005KT P6SM SCT070 BKN120 BKN250
     FM301700 10008KT P6SM FEW050 BKN120
     FM302200 14007KT P6SM VCTS SCT070CB SCT120 BKN250=

USA.gov is the U.S. government's official web portal to all federal, state and local government web resources and services.